Reese River Valley, Nevada Weather observations

Data are for 10 minute period ending at time listed.
 Day   Time   Solar   Ave.   Ave.  Ave.  Vector  Max.   Baro.   Total    
  of    of     Rad.   Air    Rel.  Wind   Wind   Wind  Press.  Precip.   
Year   Day            Temp.  Hum.  Speed  Dir.   Gust                    
2017   (PST)  Kw/m2    F      %     mph   deg.    mph    mb.     in.     
-------------------------------------------------------------------------
 172   18:30   0.02   74.4    28    5.3   134    14.5   815.1    0.00 
 172   18:40   0.02   71.9    32   11.2     1    22.2   815.5    0.00 
 172   18:50   0.01   71.7    33    9.7    11    19.3   815.6    0.00 
 172   19:00   0.01   70.9    33    8.6    17    14.5   815.6    0.00 
 172   19:10   0.01   70.6    33    8.1    32    13.5   815.6    0.00 
 172   19:20   0.00   69.3    36    5.9    59    10.4   815.5    0.00 
 172   19:30   0.00   68.9    35    6.5    48    12.9   815.5    0.00 
 172   19:40   0.00   69.5    31    4.4   317     5.3   815.7    0.00 
 172   19:50   0.00   69.6    32    8.2   333    16.1   815.8    0.00 
 172   20:00   0.00   70.7    32   11.3   333    17.9   816.0    0.00 
 172   20:10   0.00   70.1    33    9.7   338    14.8   816.2    0.00 
 172   20:20   0.00   70.1    33    8.5   335    12.1   816.4    0.00 
 172   20:30   0.00   69.2    35    6.5   356     9.0   816.3    0.00 
 172   20:40   0.00   67.0    42    6.0    77    12.3   816.1    0.00 
 172   20:50   0.00   66.9    40    4.0   107     8.3   816.1    0.00 
 172   21:00   0.00   67.0    39    2.2   193     5.3   815.9    0.00 
 172   21:10   0.00   67.4    35    5.6   242     9.9   815.7    0.00 
 172   21:20   0.00   67.3    36    8.8   229    10.8   815.8    0.00 
 172   21:30   0.00   66.7    37    7.3   221    10.7   815.6    0.00 
 172   21:40   0.00   66.3    38    5.3   203     8.5   815.5    0.00 
 172   21:50   0.00   66.1    38    6.4   202     9.4   815.3    0.00 
 172   22:00   0.00   66.1    38    3.9   205     5.8   815.6    0.00 
 172   22:10   0.00   65.4    40    4.0   159     5.2   815.6    0.00 
 172   22:20   0.00   64.2    42    6.3   162    11.0   815.9    0.00 
 172   22:30   0.00   65.7    38    5.8   156     8.5   816.0    0.00 
 172   22:40   0.00   65.5    39    5.2   168     7.6   816.1    0.00 
 172   22:50   0.00   64.3    43    2.9   121     5.8   816.3    0.00 
 172   23:00   0.00   63.7    42    3.0   244     5.5   816.3    0.00 
 172   23:10   0.00   61.7    47    2.7   180     5.6   816.4    0.00 
 172   23:20   0.00   61.1    45    3.0   208     3.9   816.3    0.00 
 172   23:30   0.00   60.3    46    5.3   197     6.8   816.4    0.00 
 172   23:40   0.00   58.0    51    4.6   159     5.8   816.3    0.00 
 172   23:50   0.00   56.9    50    5.3   156     6.2   816.4    0.00 
 173    0:00   0.00   55.0    55    4.6   135     5.9   816.4    0.00 
 173    0:10   0.00   55.3    57    5.4   115     6.8   816.3    0.00 
 173    0:20   0.00   55.5    56    5.1    77     6.7   816.3    0.00 
 173    0:30   0.00   54.9    56    2.5    18     5.3   816.3    0.00 
 173    0:40   0.00   54.8    51    2.4   260     4.0   816.3    0.00 
 173    0:50   0.00   54.1    53    3.1   204     3.7   816.4    0.00 
 173    1:00   0.00   53.5    55    3.4   181     4.8   816.3    0.00 
 173    1:10   0.00   53.5    56    2.8   159     4.5   816.3    0.00 
 173    1:20   0.00   53.4    58    4.0   152     5.6   816.3    0.00 
 173    1:30   0.00   52.7    62    4.8   129     6.7   816.2    0.00 
 173    1:40   0.00   53.2    64    5.3   110     6.4   816.0    0.00 
 173    1:50   0.00   53.1    65    5.1   109     6.2   816.0    0.00 
 173    2:00   0.00   55.0    59    3.1   101     4.8   816.0    0.00 
 173    2:10   0.00   54.1    56    3.5   214     4.2   816.1    0.00 
 173    2:20   0.00   51.5    62    3.1   171     4.3   816.0    0.00 
 173    2:30   0.00   49.8    65    3.8   200     6.1   816.0    0.00 
 173    2:40   0.00   49.6    65    4.5   169     6.3   816.0    0.00 
 173    2:50   0.00   50.4    64    4.6   162     5.9   816.0    0.00 
 173    3:00   0.00   49.9    64    4.8   179     6.1   815.9    0.00 
 173    3:10   0.00   50.2    64    4.9   214     6.1   815.8    0.00 
 173    3:20   0.00   51.0    63    5.1   196     7.5   816.0    0.00 
 173    3:30   0.00   50.4    65    5.5   160     6.5   816.0    0.00 
 173    3:40   0.00   49.4    67    5.4   152     6.7   816.1    0.00 
 173    3:50   0.00   49.0    69    4.5   150     6.4   816.2    0.00 
 173    4:00   0.00   49.0    71    4.2   144     4.8   816.3    0.00 
 173    4:10   0.00   48.3    69    5.3   200     6.8   816.4    0.00 
 173    4:20   0.00   48.1    67    5.6   220     7.3   816.4    0.00 
 173    4:30   0.01   47.2    68    5.1   203     6.6   816.5    0.00 
 173    4:40   0.01   47.0    70    4.9   170     6.1   816.5    0.00 
 173    4:50   0.02   47.9    69    5.6   162     7.2   816.5    0.00 
 173    5:00   0.02   48.4    68    4.3   191     6.1   816.5    0.00 
 173    5:10   0.06   48.8    67    4.8   208     6.6   816.5    0.00 
 173    5:20   0.10   50.2    65    4.0   221     5.0   816.6    0.00 
 173    5:30   0.13   52.2    62    4.4   226     5.3   816.7    0.00 
 173    5:40   0.15   54.8    58    4.4   214     6.1   816.7    0.00 
 173    5:50   0.19   57.6    53    4.7   216     7.3   816.8    0.00 
 173    6:00   0.23   60.3    48    4.8   199     7.0   817.0    0.00 
 173    6:10   0.26   62.7    44    4.0   200     5.3   817.1    0.00 
 173    6:20   0.29   64.4    41    2.8   226     3.7   817.3    0.00 
 173    6:30   0.33   66.1    37    1.2   206     3.7   817.5    0.00 
 173    6:40   0.36   68.3    37    1.2    81     2.0   817.6    0.00 
 173    6:50   0.40   69.0    35    1.0    38     1.8   817.8    0.00 
 173    7:00   0.43   68.2    35    4.0     7     7.5   817.8    0.00 
 173    7:10   0.47   66.9    35    6.7     0    10.7   817.9    0.00 
 173    7:20   0.51   66.6    33    8.2   358    12.3   817.9    0.00 
 173    7:30   0.54   67.0    35    6.9    14    10.7   818.0    0.00 
 173    7:40   0.57   67.2    34    8.4     4    12.1   818.1    0.00 
 173    7:50   0.61   67.1    34    8.5    10    12.9   818.2    0.00 
 173    8:00   0.64   67.3    32    8.5     6    12.8   818.3    0.00 
 173    8:10   0.67   68.2    32    7.2     7    11.8   818.2    0.00 
 173    8:20   0.70   68.6    34    7.0    17    12.9   818.2    0.00 
 173    8:30   0.73   70.0    30    8.5   356    12.9   818.1    0.00 
 173    8:40   0.76   71.0    28    9.5   347    17.6   818.1    0.00 
 173    8:50   0.79   71.1    32    6.8    12    11.5   818.1    0.00 
 173    9:00   0.82   71.1    35    7.1    13    11.9   818.2    0.00 
 173    9:10   0.84   71.5    32    8.1     3    12.6   818.1    0.00 
 173    9:20   0.87   71.9    33    7.3    14    11.5   818.1    0.00 
 173    9:30   0.89   72.7    35    7.5     6    13.2   818.2    0.00 
 173    9:40   0.91   73.0    33    6.6    11    12.1   818.1    0.00 
 173    9:50   0.93   73.6    34    5.8    26    11.0   818.1    0.00 
 173   10:00   0.95   74.6    34    5.7    26    11.2   818.0    0.00 
 173   10:10   0.97   75.7    30    6.5    13    11.3   818.0    0.00 
 173   10:20   0.99   76.0    29    6.9     3    13.2   817.8    0.00 
 173   10:30   1.00   77.0    24    7.1   356    11.5   817.8    0.00 
 173   10:40   1.02   78.0    20    8.5   336    15.6   817.7    0.00 
 173   10:50   1.03   78.0    23    7.8   354    13.5   817.7    0.00 
 173   11:00   1.04   78.6    21    7.7   346    15.6   817.6    0.00 
 173   11:10   1.05   78.5    24    7.7   360    15.1   817.6    0.00 
 173   11:20   1.05   78.3    27    6.3    16    14.9   817.5    0.00 
 173   11:30   1.06   78.4    28    7.3    24    15.1   817.5    0.00 
 173   11:40   1.06   80.0    23    6.5   347    12.0   817.4    0.00 
 173   11:50   1.07   81.2    22    7.6   346    13.5   817.3    0.00 
 173   12:00   1.07   80.7    22    8.3   346    14.3   817.2    0.00 
 173   12:10   1.06   81.0    22    9.5   343    16.1   817.1    0.00 
 173   12:20   1.06   80.0    28    7.3    29    12.8   817.0    0.00 
 173   12:30   1.05   81.4    25    7.8   356    14.5   816.8    0.00 
 173   12:40   1.05   81.8    22    9.5   348    16.6   816.7    0.00 
 173   12:50   1.04   80.5    27    7.9    25    16.0   816.6    0.00 
 173   13:00   1.03   81.4    25    8.9     6    16.7   816.6    0.00 
 173   13:10   1.02   82.1    25    7.2     8    13.4   816.5    0.00 
 173   13:20   1.00   81.2    26    7.8    19    15.9   816.4    0.00 
 173   13:30   0.99   83.0    20    8.2   337    17.1   816.3    0.00 
 173   13:40   0.97   83.5    22    6.8     7    13.7   816.2    0.00 
 173   13:50   0.96   82.7    24    5.1    24    12.3   816.1    0.00 
 173   14:00   0.94   83.6    22    4.3   357    11.9   816.1    0.00 
 173   14:10   0.92   84.5    22    7.0   356    14.9   816.0    0.00 
 173   14:20   0.90   84.5    20    6.0   331    10.4   815.9    0.00 
 173   14:30   0.88   85.9    21    5.7    21    11.7   815.8    0.00 
 173   14:40   0.85   83.4    24    8.1    10    15.1   815.8    0.00 
 173   14:50   0.82   83.7    21    5.9   346    11.7   815.8    0.00 
 173   15:00   0.80   84.8    19    8.8   349    17.3   815.7    0.00 
 173   15:10   0.77   84.1    24    6.1    12    16.4   815.6    0.00 
 173   15:20   0.74   84.5    21    7.0   350    18.4   815.5    0.00 
 173   15:30   0.71   85.4    18    6.1   334    14.7   815.5    0.00 
 173   15:40   0.68   83.4    24    9.3    16    16.9   815.4    0.00 
 173   15:50   0.65   83.0    24    7.2    22    15.6   815.3    0.00 
 173   16:00   0.61   82.9    23    8.3    11    14.0   815.3    0.00 
 173   16:10   0.58   82.5    24    7.4    10    13.7   815.2    0.00 
 173   16:20   0.55   82.2    24    9.3    24    18.2   815.2    0.00 
 173   16:30   0.51   80.7    25    9.6    28    17.3   815.3    0.00 
 173   16:40   0.48   80.8    23   10.3    12    17.3   815.3    0.00 
 173   16:50   0.45   80.5    23   10.9    25    16.7   815.3    0.00 
 173   17:00   0.41   79.8    24   10.0    34    15.6   815.3    0.00 
 173   17:10   0.38   79.8    23   10.0    21    14.8   815.4    0.00 
 173   17:20   0.34   79.8    22   11.4    21    17.3   815.5    0.00 
 173   17:30   0.31   79.2    22   11.3    24    18.1   815.6    0.00 
 173   17:40   0.27   80.0    21   11.1     6    16.7   815.7    0.00 
 173   17:50   0.24   79.6    21   10.3    11    17.4   815.9    0.00 
 173   18:00   0.21   79.1    21   10.9    16    15.6   816.0    0.00 
 173   18:10   0.18   78.8    21   10.5     6    15.3   816.1    0.00 
 173   18:20   0.15   79.0    19   11.4   360    17.0   816.2    0.00 

Return to Reese River Valley graphs page.


Western Regional Climate Center,wrcc@dri.edu